Time;durP1;ratioP1;P1;durP2;ratioP2;P2;SDS_P1;SDS_P2;PMS_P1;PMS_P2;Temp;Humidity;BMP_temperature;BMP_pressure;BME280_temperature;BME280_humidity;BME280_pressure;Samples;Min_cycle;Max_cycle;Signal;HPM_P1;HPM_P2
2022/07/22 00:01:44;;;;;;;1.20;1.00;;;;;;;;;;4476933;28;20035;-58
2022/07/22 00:03:55;;;;;;;1.10;1.00;;;;;;;;;;4477916;28;20038;-57
2022/07/22 00:06:05;;;;;;;1.15;1.05;;;;;;;;;;4476005;28;20022;-58
2022/07/22 00:08:16;;;;;;;1.15;1.05;;;;;;;;;;4478013;28;20034;-57
2022/07/22 00:10:29;;;;;;;1.02;0.95;;;;;;;;;;4462539;28;20533;-57
2022/07/22 00:12:40;;;;;;;0.75;0.75;;;;;;;;;;4478130;28;20609;-57
2022/07/22 00:14:51;;;;;;;0.80;0.80;;;;;;;;;;4477364;28;20042;-58
2022/07/22 00:17:01;;;;;;;0.70;0.60;;;;;;;;;;4478649;28;20039;-58
2022/07/22 00:19:12;;;;;;;0.50;0.50;;;;;;;;;;4476722;28;20129;-58
2022/07/22 00:21:23;;;;;;;0.50;0.50;;;;;;;;;;4477367;28;20877;-58
2022/07/22 00:23:33;;;;;;;0.35;0.35;;;;;;;;;;4471988;28;20035;-58
2022/07/22 00:25:44;;;;;;;0.50;0.50;;;;;;;;;;4478558;28;20034;-58
2022/07/22 00:27:54;;;;;;;0.40;0.40;;;;;;;;;;4475953;28;20030;-58
2022/07/22 00:30:05;;;;;;;0.50;0.50;;;;;;;;;;4475642;28;20050;-57
2022/07/22 00:32:16;;;;;;;0.63;0.60;;;;;;;;;;4476109;28;20041;-58
2022/07/22 00:34:26;;;;;;;0.60;0.60;;;;;;;;;;4457263;28;20026;-58
2022/07/22 00:36:38;;;;;;;0.50;0.50;;;;;;;;;;4476581;28;20704;-58
2022/07/22 00:38:49;;;;;;;0.40;0.40;;;;;;;;;;4450211;28;20035;-57
2022/07/22 00:40:59;;;;;;;0.60;0.50;;;;;;;;;;4477420;28;20038;-57
2022/07/22 00:43:10;;;;;;;0.50;0.50;;;;;;;;;;4443620;28;20038;-58
2022/07/22 00:45:20;;;;;;;0.50;0.50;;;;;;;;;;4475630;28;20041;-57
2022/07/22 00:47:31;;;;;;;0.55;0.50;;;;;;;;;;4477085;28;20038;-57
2022/07/22 00:49:41;;;;;;;0.93;0.80;;;;;;;;;;4475964;28;20051;-58
2022/07/22 00:51:52;;;;;;;1.08;0.85;;;;;;;;;;4476861;28;20788;-57
2022/07/22 00:54:03;;;;;;;2.10;1.30;;;;;;;;;;4476573;28;20080;-58
2022/07/22 00:56:15;;;;;;;1.83;1.23;;;;;;;;;;4441652;28;20059;-57
2022/07/22 00:58:26;;;;;;;1.83;1.23;;;;;;;;;;4475513;28;20035;-58
2022/07/22 01:00:36;;;;;;;1.77;1.20;;;;;;;;;;4460005;28;20064;-58
2022/07/22 01:02:47;;;;;;;1.98;1.20;;;;;;;;;;4476632;28;20066;-57
2022/07/22 01:04:57;;;;;;;1.77;1.30;;;;;;;;;;4443565;28;20044;-58
2022/07/22 01:07:08;;;;;;;1.75;1.10;;;;;;;;;;4477313;28;20627;-57
2022/07/22 01:09:19;;;;;;;1.15;1.05;;;;;;;;;;4461984;28;20999;-57
2022/07/22 01:11:30;;;;;;;1.27;1.00;;;;;;;;;;4444295;28;20558;-57
2022/07/22 01:13:41;;;;;;;1.20;1.00;;;;;;;;;;4475456;28;20043;-57
2022/07/22 01:15:52;;;;;;;1.30;1.05;;;;;;;;;;4465433;28;20858;-57
2022/07/22 01:18:04;;;;;;;1.35;1.10;;;;;;;;;;4460015;28;20106;-57
2022/07/22 01:20:14;;;;;;;1.27;1.17;;;;;;;;;;4477121;28;20039;-57
2022/07/22 01:22:26;;;;;;;1.80;0.95;;;;;;;;;;4476671;28;20042;-57
2022/07/22 01:24:36;;;;;;;1.65;1.10;;;;;;;;;;4449820;28;20039;-57
2022/07/22 01:26:47;;;;;;;1.40;0.88;;;;;;;;;;4465417;28;20478;-57
2022/07/22 01:28:57;;;;;;;2.05;1.17;;;;;;;;;;4458797;28;20934;-57
2022/07/22 01:31:08;;;;;;;1.58;1.10;;;;;;;;;;4477728;28;20031;-57
2022/07/22 01:33:20;;;;;;;1.45;1.27;;;;;;;;;;4449421;28;20028;-57
2022/07/22 01:35:30;;;;;;;1.85;1.17;;;;;;;;;;4441699;28;20041;-57
2022/07/22 01:37:41;;;;;;;1.77;1.30;;;;;;;;;;4465250;28;20063;-57
2022/07/22 01:39:51;;;;;;;2.55;1.92;;;;;;;;;;4459843;28;20031;-57
2022/07/22 01:42:02;;;;;;;2.08;1.75;;;;;;;;;;4459107;28;20039;-57
2022/07/22 01:44:13;;;;;;;1.67;1.33;;;;;;;;;;4457883;28;20031;-57
2022/07/22 01:46:24;;;;;;;2.83;2.10;;;;;;;;;;4475943;28;20038;-58
2022/07/22 01:48:34;;;;;;;2.35;1.70;;;;;;;;;;4460068;28;20131;-57
2022/07/22 01:50:45;;;;;;;2.28;1.70;;;;;;;;;;4465249;28;20031;-57
2022/07/22 01:52:56;;;;;;;2.00;1.60;;;;;;;;;;4456594;28;20030;-57
2022/07/22 01:55:08;;;;;;;1.50;1.40;;;;;;;;;;4465213;28;20053;-57
2022/07/22 01:57:18;;;;;;;2.33;1.80;;;;;;;;;;4464282;28;20031;-57
2022/07/22 01:59:33;;;;;;;2.00;1.58;;;;;;;;;;4460489;28;20034;-58
2022/07/22 02:01:45;;;;;;;2.00;1.52;;;;;;;;;;4461983;28;20048;-57
2022/07/22 02:03:56;;;;;;;1.80;1.52;;;;;;;;;;4463808;28;20029;-58
2022/07/22 02:06:07;;;;;;;1.58;1.30;;;;;;;;;;4468489;28;20039;-57
2022/07/22 02:08:18;;;;;;;1.58;1.38;;;;;;;;;;4451182;28;20973;-57
2022/07/22 02:11:04;;;;;;;1.65;1.30;;;;;;;;;;4463464;28;20604;-57
2022/07/22 02:13:15;;;;;;;2.38;1.30;;;;;;;;;;4467936;28;20046;-57
2022/07/22 02:15:26;;;;;;;1.48;1.00;;;;;;;;;;4451433;28;20065;-57
2022/07/22 02:17:36;;;;;;;1.63;1.27;;;;;;;;;;4479928;28;20117;-57
2022/07/22 02:19:47;;;;;;;1.30;1.20;;;;;;;;;;4467196;28;20039;-57
2022/07/22 02:21:57;;;;;;;1.35;1.20;;;;;;;;;;4460326;28;20061;-57
2022/07/22 02:24:08;;;;;;;1.38;1.10;;;;;;;;;;4467497;28;20038;-57
2022/07/22 02:26:19;;;;;;;1.60;1.00;;;;;;;;;;4477793;28;20066;-57
2022/07/22 02:28:29;;;;;;;1.15;1.05;;;;;;;;;;4477054;28;20030;-57
2022/07/22 02:30:40;;;;;;;1.65;1.33;;;;;;;;;;4478750;28;20113;-57
2022/07/22 02:32:50;;;;;;;1.73;0.90;;;;;;;;;;4460647;28;20027;-57
2022/07/22 02:35:01;;;;;;;1.63;1.10;;;;;;;;;;4478485;28;20041;-58
2022/07/22 02:37:12;;;;;;;1.63;1.20;;;;;;;;;;4451332;28;20032;-58
2022/07/22 02:39:23;;;;;;;1.67;1.10;;;;;;;;;;4460535;28;20106;-57
2022/07/22 02:41:33;;;;;;;1.73;1.20;;;;;;;;;;4478905;28;20479;-56
2022/07/22 02:43:44;;;;;;;3.10;1.52;;;;;;;;;;4467420;28;20823;-57
2022/07/22 02:45:55;;;;;;;2.60;1.70;;;;;;;;;;4468106;28;20094;-57
2022/07/22 02:48:06;;;;;;;2.67;1.70;;;;;;;;;;4477880;28;20069;-57
2022/07/22 02:50:18;;;;;;;3.10;2.13;;;;;;;;;;4460575;28;20106;-60
2022/07/22 02:52:28;;;;;;;3.92;2.25;;;;;;;;;;4462941;28;20534;-57
2022/07/22 02:54:39;;;;;;;3.58;2.40;;;;;;;;;;4458928;28;20089;-57
2022/07/22 02:56:50;;;;;;;3.30;2.25;;;;;;;;;;4459070;28;20039;-57
2022/07/22 02:59:01;;;;;;;2.92;2.08;;;;;;;;;;4465631;28;20035;-57
2022/07/22 03:01:12;;;;;;;2.65;1.90;;;;;;;;;;4467333;28;20558;-57
2022/07/22 03:03:31;;;;;;;2.50;1.75;;;;;;;;;;4467169;28;20405;-57
2022/07/22 03:05:42;;;;;;;2.40;1.90;;;;;;;;;;4460127;28;20737;-57
2022/07/22 03:08:01;;;;;;;2.58;1.90;;;;;;;;;;4466217;28;20046;-57
2022/07/22 03:10:12;;;;;;;3.20;1.92;;;;;;;;;;4459340;28;20479;-57
2022/07/22 03:12:22;;;;;;;3.17;2.20;;;;;;;;;;4474601;28;20118;-57
2022/07/22 03:14:33;;;;;;;2.88;1.83;;;;;;;;;;4467389;28;20502;-57
2022/07/22 03:16:44;;;;;;;2.40;1.80;;;;;;;;;;4467500;28;20035;-57
2022/07/22 03:18:55;;;;;;;2.50;2.00;;;;;;;;;;4459225;28;20589;-57
2022/07/22 03:21:05;;;;;;;2.47;1.80;;;;;;;;;;4460973;28;20098;-57
2022/07/22 03:23:16;;;;;;;2.25;1.85;;;;;;;;;;4462960;28;20034;-57
2022/07/22 03:25:27;;;;;;;3.03;1.90;;;;;;;;;;4460341;28;20039;-57
2022/07/22 03:27:37;;;;;;;2.85;2.15;;;;;;;;;;4462241;28;20125;-57
2022/07/22 03:29:48;;;;;;;3.05;2.40;;;;;;;;;;4458722;28;20403;-58
2022/07/22 03:31:58;;;;;;;3.55;2.38;;;;;;;;;;4476003;28;20027;-57
2022/07/22 03:34:30;;;;;;;3.00;1.98;;;;;;;;;;4467441;28;20065;-58
2022/07/22 03:36:47;;;;;;;3.95;2.05;;;;;;;;;;4478713;28;20046;-58
2022/07/22 03:38:58;;;;;;;3.03;2.20;;;;;;;;;;4468191;28;20507;-58
2022/07/22 03:41:08;;;;;;;3.20;2.30;;;;;;;;;;4467496;28;20043;-57
2022/07/22 03:43:19;;;;;;;2.95;2.13;;;;;;;;;;4459662;28;20034;-57
2022/07/22 03:45:29;;;;;;;3.80;2.60;;;;;;;;;;4467547;28;20042;-57
2022/07/22 03:47:41;;;;;;;4.07;2.65;;;;;;;;;;4459779;28;20570;-59
2022/07/22 03:49:52;;;;;;;3.85;2.50;;;;;;;;;;4459582;28;20762;-57
2022/07/22 03:52:09;;;;;;;4.53;2.55;;;;;;;;;;4451947;28;20023;-58
2022/07/22 03:54:19;;;;;;;2.33;1.70;;;;;;;;;;4479414;28;20090;-58
2022/07/22 03:56:30;;;;;;;3.35;2.25;;;;;;;;;;4467319;28;20990;-57
2022/07/22 03:58:40;;;;;;;2.30;1.63;;;;;;;;;;4477682;28;20027;-57
2022/07/22 04:00:51;;;;;;;2.00;1.52;;;;;;;;;;4477039;28;20060;-57
2022/07/22 04:03:01;;;;;;;2.30;1.60;;;;;;;;;;4479056;28;20038;-57
2022/07/22 04:05:40;;;;;;;1.80;1.58;;;;;;;;;;4460588;28;20031;-57
2022/07/22 04:07:51;;;;;;;1.67;1.20;;;;;;;;;;4467432;28;20087;-57
2022/07/22 04:10:05;;;;;;;1.63;1.00;;;;;;;;;;4476091;28;20154;-58
2022/07/22 04:12:17;;;;;;;1.83;1.10;;;;;;;;;;4459246;28;20062;-58
2022/07/22 04:14:47;;;;;;;1.83;1.10;;;;;;;;;;4478063;28;20222;-57
2022/07/22 04:16:57;;;;;;;1.13;0.80;;;;;;;;;;4478225;28;20038;-57
2022/07/22 04:19:08;;;;;;;1.20;0.80;;;;;;;;;;4478413;28;20026;-57
2022/07/22 04:21:33;;;;;;;0.70;0.70;;;;;;;;;;4467414;28;20109;-57
2022/07/22 04:23:47;;;;;;;0.70;0.57;;;;;;;;;;4467158;28;20041;-59
2022/07/22 04:26:02;;;;;;;0.95;0.70;;;;;;;;;;4467220;28;20030;-57
2022/07/22 04:28:15;;;;;;;1.17;0.52;;;;;;;;;;4460288;28;20070;-57
2022/07/22 04:30:26;;;;;;;1.55;0.70;;;;;;;;;;4466138;28;20043;-57
2022/07/22 04:32:37;;;;;;;1.35;0.70;;;;;;;;;;4466911;28;20027;-57
2022/07/22 04:34:47;;;;;;;1.10;0.57;;;;;;;;;;4477075;28;20059;-57
2022/07/22 04:36:58;;;;;;;0.98;0.57;;;;;;;;;;4477858;28;20134;-57
2022/07/22 04:39:11;;;;;;;1.05;0.60;;;;;;;;;;4466512;28;20035;-57
2022/07/22 04:41:27;;;;;;;1.27;0.70;;;;;;;;;;4466502;28;20034;-57
2022/07/22 04:43:37;;;;;;;1.05;0.70;;;;;;;;;;4466995;28;20039;-57
2022/07/22 04:45:49;;;;;;;0.68;0.55;;;;;;;;;;4459921;28;20224;-56
2022/07/22 04:48:01;;;;;;;1.80;0.80;;;;;;;;;;4466857;28;20597;-57
2022/07/22 04:50:11;;;;;;;0.60;0.60;;;;;;;;;;4455877;28;20059;-57
2022/07/22 04:52:22;;;;;;;0.90;0.60;;;;;;;;;;4450782;28;20039;-56
2022/07/22 04:54:33;;;;;;;1.45;0.75;;;;;;;;;;4459561;28;20040;-57
2022/07/22 04:56:43;;;;;;;1.70;0.98;;;;;;;;;;4457779;28;20217;-57
2022/07/22 04:58:54;;;;;;;1.00;0.70;;;;;;;;;;4443829;28;20019;-57
2022/07/22 05:01:07;;;;;;;1.55;0.90;;;;;;;;;;4466132;28;20162;-58
2022/07/22 05:03:18;;;;;;;2.20;1.20;;;;;;;;;;4466630;28;20045;-59
2022/07/22 05:05:28;;;;;;;1.73;1.02;;;;;;;;;;4477612;28;20038;-59
2022/07/22 05:07:39;;;;;;;1.98;1.20;;;;;;;;;;4460259;28;20070;-59
2022/07/22 05:09:50;;;;;;;1.80;1.08;;;;;;;;;;4465944;28;20223;-59
2022/07/22 05:12:01;;;;;;;2.53;1.40;;;;;;;;;;4476123;28;20038;-58
2022/07/22 05:14:11;;;;;;;1.95;1.30;;;;;;;;;;4465451;28;20039;-61
2022/07/22 05:16:22;;;;;;;2.20;1.30;;;;;;;;;;4458251;28;20578;-60
2022/07/22 05:18:34;;;;;;;2.17;1.50;;;;;;;;;;4478359;28;20546;-59
2022/07/22 05:20:45;;;;;;;2.45;1.38;;;;;;;;;;4466455;28;20574;-61
2022/07/22 05:22:55;;;;;;;1.90;1.30;;;;;;;;;;4466937;28;20035;-59
2022/07/22 05:25:09;;;;;;;2.40;1.17;;;;;;;;;;4466330;28;20062;-60
2022/07/22 05:27:20;;;;;;;1.45;0.88;;;;;;;;;;4477931;28;20101;-59
2022/07/22 05:29:30;;;;;;;2.65;1.30;;;;;;;;;;4456557;28;20043;-59
2022/07/22 05:31:41;;;;;;;1.83;1.13;;;;;;;;;;4459651;28;20039;-59
2022/07/22 05:33:51;;;;;;;1.92;1.30;;;;;;;;;;4461922;28;20045;-59
2022/07/22 05:36:11;;;;;;;1.50;1.10;;;;;;;;;;4461822;28;20658;-59
2022/07/22 05:38:27;;;;;;;1.40;1.20;;;;;;;;;;4468996;28;21016;-59
2022/07/22 05:40:37;;;;;;;2.53;1.50;;;;;;;;;;4480756;28;20069;-59
2022/07/22 05:42:49;;;;;;;2.20;1.20;;;;;;;;;;4468603;28;20037;-59
2022/07/22 05:44:59;;;;;;;2.40;1.30;;;;;;;;;;4459509;28;20042;-58
2022/07/22 05:47:10;;;;;;;2.28;1.55;;;;;;;;;;4475702;28;20062;-59
2022/07/22 05:49:21;;;;;;;2.35;1.50;;;;;;;;;;4469442;28;20035;-58
2022/07/22 05:51:39;;;;;;;2.00;1.42;;;;;;;;;;4462185;28;20617;-59
2022/07/22 05:53:50;;;;;;;2.05;1.50;;;;;;;;;;4462453;28;20670;-58
2022/07/22 05:56:00;;;;;;;2.08;1.42;;;;;;;;;;4479871;28;20121;-59
2022/07/22 05:58:13;;;;;;;2.03;1.40;;;;;;;;;;4461375;28;20148;-59
2022/07/22 06:00:23;;;;;;;1.73;1.20;;;;;;;;;;4481233;28;20089;-59
2022/07/22 06:02:34;;;;;;;1.88;1.40;;;;;;;;;;4459540;28;20118;-60
2022/07/22 06:04:44;;;;;;;2.17;1.33;;;;;;;;;;4452112;28;20058;-58
2022/07/22 06:06:57;;;;;;;2.13;1.42;;;;;;;;;;4462157;28;20767;-58
2022/07/22 06:09:07;;;;;;;2.10;1.50;;;;;;;;;;4468940;28;20074;-59
2022/07/22 06:11:18;;;;;;;1.70;1.50;;;;;;;;;;4462930;28;20038;-59
2022/07/22 06:13:29;;;;;;;1.30;1.10;;;;;;;;;;4468355;28;20066;-58
2022/07/22 06:15:39;;;;;;;1.98;1.30;;;;;;;;;;4463645;28;20030;-59
2022/07/22 06:17:50;;;;;;;1.65;1.30;;;;;;;;;;4462696;28;20075;-58
2022/07/22 06:20:01;;;;;;;2.40;1.50;;;;;;;;;;4461847;28;20039;-58
2022/07/22 06:22:11;;;;;;;2.13;1.40;;;;;;;;;;4446274;28;20039;-59
2022/07/22 06:24:22;;;;;;;2.10;1.40;;;;;;;;;;4475697;28;20034;-57
2022/07/22 06:26:32;;;;;;;2.25;1.50;;;;;;;;;;4455961;28;20042;-60
2022/07/22 06:28:43;;;;;;;2.15;1.77;;;;;;;;;;4468150;28;20046;-59
2022/07/22 06:30:54;;;;;;;2.55;1.63;;;;;;;;;;4468294;28;20153;-59
2022/07/22 06:33:06;;;;;;;2.45;1.77;;;;;;;;;;4462272;28;20117;-59
2022/07/22 06:35:16;;;;;;;2.05;1.55;;;;;;;;;;4464193;28;20258;-59
2022/07/22 06:37:28;;;;;;;2.17;1.63;;;;;;;;;;4467049;28;20044;-58
2022/07/22 06:39:38;;;;;;;2.03;1.60;;;;;;;;;;4467947;28;20707;-58
2022/07/22 06:42:04;;;;;;;2.03;1.55;;;;;;;;;;4466494;28;20035;-58
2022/07/22 06:44:51;;;;;;;3.50;1.60;;;;;;;;;;4430678;28;20785;-57
2022/07/22 06:47:21;;;;;;;2.33;1.85;;;;;;;;;;4468881;28;20047;-60
2022/07/22 06:49:32;;;;;;;2.65;1.60;;;;;;;;;;4477956;28;20042;-59
2022/07/22 06:51:42;;;;;;;2.75;1.60;;;;;;;;;;4478461;28;20039;-63
2022/07/22 06:53:54;;;;;;;2.25;1.65;;;;;;;;;;4451681;28;20043;-60
2022/07/22 06:56:05;;;;;;;2.90;1.90;;;;;;;;;;4462017;28;20043;-57
2022/07/22 06:58:15;;;;;;;2.55;1.70;;;;;;;;;;4443326;28;20185;-57
2022/07/22 07:00:26;;;;;;;2.70;2.00;;;;;;;;;;4478830;28;20035;-62
2022/07/22 07:02:59;;;;;;;2.70;1.65;;;;;;;;;;4478729;28;20133;-57
2022/07/22 07:05:10;;;;;;;2.53;1.73;;;;;;;;;;4461748;28;20035;-57
2022/07/22 07:07:20;;;;;;;1.88;1.52;;;;;;;;;;4479871;28;20026;-56
2022/07/22 07:09:49;;;;;;;2.80;2.10;;;;;;;;;;4466867;28;20091;-57
2022/07/22 07:12:18;;;;;;;2.30;1.70;;;;;;;;;;4478940;28;20038;-57
2022/07/22 07:14:57;;;;;;;3.30;2.05;;;;;;;;;;4477396;28;20107;-57
2022/07/22 07:17:07;;;;;;;3.03;1.63;;;;;;;;;;4468367;28;20150;-57
2022/07/22 07:19:19;;;;;;;2.92;1.70;;;;;;;;;;4478912;28;20978;-57
2022/07/22 07:21:30;;;;;;;2.40;1.80;;;;;;;;;;4468341;28;20046;-57
2022/07/22 07:23:41;;;;;;;1.90;1.30;;;;;;;;;;4478899;28;20042;-57
2022/07/22 07:25:52;;;;;;;3.85;1.92;;;;;;;;;;4447537;28;20848;-57
2022/07/22 07:28:02;;;;;;;3.70;2.15;;;;;;;;;;4460853;28;20039;-58
2022/07/22 07:30:32;;;;;;;1.80;1.35;;;;;;;;;;4466926;28;20531;-56
2022/07/22 07:32:43;;;;;;;1.77;1.20;;;;;;;;;;4467334;28;20113;-57
2022/07/22 07:34:53;;;;;;;1.75;1.20;;;;;;;;;;4460435;28;20039;-57
2022/07/22 07:37:04;;;;;;;2.42;1.30;;;;;;;;;;4444596;28;20499;-57
2022/07/22 07:39:14;;;;;;;1.63;0.98;;;;;;;;;;4461381;28;20114;-57
2022/07/22 07:41:25;;;;;;;1.58;0.90;;;;;;;;;;4478415;28;20388;-57
2022/07/22 07:43:36;;;;;;;1.95;0.98;;;;;;;;;;4435816;28;20513;-57
2022/07/22 07:45:47;;;;;;;1.70;1.10;;;;;;;;;;4467332;28;20709;-57
2022/07/22 07:47:58;;;;;;;2.38;1.17;;;;;;;;;;4467304;28;20038;-57
2022/07/22 07:50:09;;;;;;;2.38;1.17;;;;;;;;;;4451591;28;20477;-57
2022/07/22 07:52:19;;;;;;;1.85;1.23;;;;;;;;;;4480427;28;20041;-57
2022/07/22 07:54:30;;;;;;;2.17;1.30;;;;;;;;;;4451987;28;20047;-57
2022/07/22 07:56:40;;;;;;;2.78;1.40;;;;;;;;;;4466444;28;20117;-57
2022/07/22 07:58:51;;;;;;;2.00;1.30;;;;;;;;;;4479798;28;20074;-59
2022/07/22 08:01:01;;;;;;;2.63;1.40;;;;;;;;;;4478218;28;20043;-58
2022/07/22 08:03:12;;;;;;;3.30;1.42;;;;;;;;;;4461430;28;20163;-57
2022/07/22 08:05:24;;;;;;;2.92;1.50;;;;;;;;;;4457352;28;20031;-58
2022/07/22 08:07:36;;;;;;;2.63;1.50;;;;;;;;;;4479370;28;20039;-58
2022/07/22 08:09:47;;;;;;;1.90;1.20;;;;;;;;;;4460601;28;20581;-59
2022/07/22 08:12:06;;;;;;;2.97;1.75;;;;;;;;;;4448710;28;20154;-58
2022/07/22 08:14:43;;;;;;;2.58;1.30;;;;;;;;;;4475748;28;20893;-60
2022/07/22 08:17:13;;;;;;;2.35;1.60;;;;;;;;;;4463213;28;20142;-58
2022/07/22 08:19:24;;;;;;;1.88;1.50;;;;;;;;;;4461498;28;20492;-59
2022/07/22 08:21:35;;;;;;;3.22;1.60;;;;;;;;;;4460546;28;20031;-58
2022/07/22 08:23:59;;;;;;;4.10;1.50;;;;;;;;;;4467229;28;20117;-59
2022/07/22 08:26:10;;;;;;;3.00;1.67;;;;;;;;;;4479241;28;20030;-59
2022/07/22 08:28:21;;;;;;;3.08;1.63;;;;;;;;;;4477696;28;20034;-59
2022/07/22 08:30:32;;;;;;;2.50;1.70;;;;;;;;;;4476504;28;20047;-58
2022/07/22 08:32:42;;;;;;;2.92;1.77;;;;;;;;;;4467814;28;20035;-59
2022/07/22 08:34:53;;;;;;;3.05;1.60;;;;;;;;;;4477340;28;20125;-56
2022/07/22 08:37:03;;;;;;;2.42;1.55;;;;;;;;;;4460298;28;20549;-56
2022/07/22 08:39:14;;;;;;;2.50;1.70;;;;;;;;;;4467345;28;20065;-56
2022/07/22 08:41:25;;;;;;;3.25;1.92;;;;;;;;;;4457365;28;20388;-56
2022/07/22 08:43:40;;;;;;;3.15;2.00;;;;;;;;;;4451573;28;20042;-56
2022/07/22 08:45:50;;;;;;;2.15;1.42;;;;;;;;;;4457426;28;20054;-57
2022/07/22 08:48:03;;;;;;;2.30;1.40;;;;;;;;;;4455221;28;20129;-56
2022/07/22 08:50:13;;;;;;;2.53;1.80;;;;;;;;;;4462686;28;20047;-56
2022/07/22 08:52:34;;;;;;;3.20;2.00;;;;;;;;;;4477890;28;20495;-57
2022/07/22 08:54:44;;;;;;;3.25;1.58;;;;;;;;;;4450769;28;20518;-57
2022/07/22 08:56:56;;;;;;;2.55;1.40;;;;;;;;;;4467012;28;20023;-60
2022/07/22 08:59:08;;;;;;;3.60;1.98;;;;;;;;;;4466325;28;20042;-57
2022/07/22 09:01:19;;;;;;;3.10;1.80;;;;;;;;;;4467101;28;20392;-57
2022/07/22 09:03:44;;;;;;;2.70;1.52;;;;;;;;;;4458659;28;20400;-56
2022/07/22 09:05:54;;;;;;;1.95;1.45;;;;;;;;;;4477786;28;20042;-57
2022/07/22 09:08:05;;;;;;;2.22;1.40;;;;;;;;;;4466817;28;20030;-57
2022/07/22 09:10:36;;;;;;;2.80;2.00;;;;;;;;;;4478331;28;20058;-57
2022/07/22 09:13:14;;;;;;;2.70;2.00;;;;;;;;;;4450962;28;20671;-57
2022/07/22 09:15:37;;;;;;;1.88;1.63;;;;;;;;;;4461785;28;20046;-57
2022/07/22 09:18:07;;;;;;;2.95;2.10;;;;;;;;;;4480312;28;20078;-57
2022/07/22 09:20:36;;;;;;;2.45;1.95;;;;;;;;;;4468873;28;20106;-57
2022/07/22 09:23:20;;;;;;;3.28;2.20;;;;;;;;;;4477024;28;20038;-57
2022/07/22 09:25:34;;;;;;;2.75;1.80;;;;;;;;;;4447960;28;21164;-57
2022/07/22 09:28:24;;;;;;;3.25;2.03;;;;;;;;;;4458929;28;20039;-57
2022/07/22 09:30:55;;;;;;;3.38;2.40;;;;;;;;;;4465804;28;20051;-57
2022/07/22 09:33:07;;;;;;;3.13;2.10;;;;;;;;;;4462429;28;20575;-57
2022/07/22 09:35:25;;;;;;;3.67;2.22;;;;;;;;;;4480800;28;20095;-57
2022/07/22 09:37:47;;;;;;;3.08;2.20;;;;;;;;;;4461442;28;20114;-57
2022/07/22 09:40:20;;;;;;;3.20;2.08;;;;;;;;;;4447543;28;20067;-58
2022/07/22 09:42:43;;;;;;;3.80;2.30;;;;;;;;;;4447244;28;20085;-57
2022/07/22 09:44:54;;;;;;;2.05;1.70;;;;;;;;;;4476623;28;20041;-57
2022/07/22 09:47:29;;;;;;;3.97;2.35;;;;;;;;;;4469134;28;20067;-57
2022/07/22 09:50:15;;;;;;;2.92;2.08;;;;;;;;;;4457551;28;20051;-57
2022/07/22 09:52:49;;;;;;;2.63;1.80;;;;;;;;;;4470532;28;20042;-57
2022/07/22 09:55:08;;;;;;;3.25;1.50;;;;;;;;;;4461636;28;20043;-57
2022/07/22 09:57:19;;;;;;;2.38;1.60;;;;;;;;;;4464152;28;20114;-58
2022/07/22 09:59:30;;;;;;;2.35;1.50;;;;;;;;;;4471564;28;20038;-58
2022/07/22 10:01:47;;;;;;;;;;;;;;;;;;4469542;28;20495;-58
2022/07/22 10:03:58;;;;;;;2.80;1.77;;;;;;;;;;4452574;28;19922;-57
2022/07/22 10:06:10;;;;;;;2.65;1.77;;;;;;;;;;4461676;28;20035;-57
2022/07/22 10:08:21;;;;;;;2.20;1.77;;;;;;;;;;4469041;28;20085;-57
2022/07/22 10:10:33;;;;;;;2.55;1.52;;;;;;;;;;4451686;28;20121;-58
2022/07/22 10:12:44;;;;;;;2.70;2.00;;;;;;;;;;4461187;28;20775;-57
2022/07/22 10:14:54;;;;;;;2.55;1.60;;;;;;;;;;4468888;28;20026;-58
2022/07/22 10:17:05;;;;;;;3.28;2.20;;;;;;;;;;4468312;28;20982;-58
2022/07/22 10:19:16;;;;;;;3.17;2.20;;;;;;;;;;4467448;28;20168;-58
2022/07/22 10:21:33;;;;;;;2.95;1.67;;;;;;;;;;4479007;28;20058;-58
2022/07/22 10:24:07;;;;;;;3.45;2.20;;;;;;;;;;4479159;28;20042;-58
2022/07/22 10:26:18;;;;;;;2.20;1.70;;;;;;;;;;4461535;28;20035;-58
2022/07/22 10:28:35;;;;;;;3.40;2.35;;;;;;;;;;4464265;28;20039;-59
2022/07/22 10:30:45;;;;;;;3.95;2.60;;;;;;;;;;4459591;28;20095;-59
2022/07/22 10:33:05;;;;;;;3.95;2.50;;;;;;;;;;4463078;28;20677;-59
2022/07/22 10:35:21;;;;;;;2.88;1.90;;;;;;;;;;4445709;28;20087;-58
2022/07/22 10:37:35;;;;;;;3.45;2.30;;;;;;;;;;4462312;28;20031;-58
2022/07/22 10:40:10;;;;;;;3.78;2.22;;;;;;;;;;4447776;28;20039;-58
2022/07/22 10:42:21;;;;;;;3.65;2.15;;;;;;;;;;4479674;28;20709;-59
2022/07/22 10:44:46;;;;;;;3.33;2.10;;;;;;;;;;4463876;28;20047;-59
2022/07/22 10:46:58;;;;;;;3.60;2.70;;;;;;;;;;4479872;28;20041;-59
2022/07/22 10:49:10;;;;;;;4.43;2.55;;;;;;;;;;4479924;28;20046;-59
2022/07/22 10:51:21;;;;;;;4.68;2.70;;;;;;;;;;4478790;28;20031;-59
2022/07/22 10:53:41;;;;;;;4.07;2.78;;;;;;;;;;4478011;28;20118;-59
2022/07/22 10:55:58;;;;;;;4.13;2.60;;;;;;;;;;4478999;28;20067;-59
2022/07/22 10:58:33;;;;;;;4.13;2.90;;;;;;;;;;4479824;28;20058;-63
2022/07/22 11:00:44;;;;;;;4.20;2.95;;;;;;;;;;4478975;28;20047;-59
2022/07/22 11:02:54;;;;;;;5.53;3.40;;;;;;;;;;4479742;28;20026;-60
2022/07/22 11:05:06;;;;;;;4.57;2.95;;;;;;;;;;4480608;28;20034;-60
2022/07/22 11:07:17;;;;;;;5.20;3.75;;;;;;;;;;4479934;28;20034;-65
2022/07/22 11:09:32;;;;;;;5.55;3.42;;;;;;;;;;4477475;28;20042;-60
2022/07/22 11:11:52;;;;;;;5.05;3.42;;;;;;;;;;4462114;28;20043;-57
2022/07/22 11:14:02;;;;;;;4.30;3.22;;;;;;;;;;4479520;28;20597;-58
2022/07/22 11:16:22;;;;;;;5.40;3.25;;;;;;;;;;4478626;28;20049;-58
2022/07/22 11:18:52;;;;;;;4.57;2.90;;;;;;;;;;4478383;28;21170;-58
2022/07/22 11:21:03;;;;;;;5.22;2.90;;;;;;;;;;4477253;28;20041;-58
2022/07/22 11:23:14;;;;;;;3.42;2.60;;;;;;;;;;4463240;28;20034;-58
2022/07/22 11:25:26;;;;;;;3.53;2.17;;;;;;;;;;4479501;28;20038;-58
2022/07/22 11:27:37;;;;;;;3.78;2.70;;;;;;;;;;4468125;28;20140;-58
2022/07/22 11:29:50;;;;;;;3.42;2.40;;;;;;;;;;4478900;28;20049;-57
2022/07/22 11:32:03;;;;;;;4.35;2.92;;;;;;;;;;4479979;28;20577;-57
2022/07/22 11:34:15;;;;;;;4.15;2.78;;;;;;;;;;4461677;28;20038;-58
2022/07/22 11:36:32;;;;;;;4.65;2.53;;;;;;;;;;4476831;28;20644;-58
2022/07/22 11:38:45;;;;;;;3.72;2.50;;;;;;;;;;4463370;28;20046;-58
2022/07/22 11:40:56;;;;;;;3.40;2.38;;;;;;;;;;4479920;28;20043;-59
2022/07/22 11:43:08;;;;;;;3.63;2.67;;;;;;;;;;4479817;28;20031;-59
2022/07/22 11:45:19;;;;;;;3.53;2.30;;;;;;;;;;4478307;28;20088;-59
2022/07/22 11:47:29;;;;;;;2.70;1.92;;;;;;;;;;4478583;28;20126;-59
2022/07/22 11:49:40;;;;;;;2.05;1.55;;;;;;;;;;4477226;28;20960;-59
2022/07/22 11:51:51;;;;;;;2.85;1.85;;;;;;;;;;4478198;28;20085;-59
2022/07/22 11:54:02;;;;;;;2.10;1.58;;;;;;;;;;4478699;28;20694;-59
2022/07/22 11:56:13;;;;;;;1.85;1.45;;;;;;;;;;4479310;28;20034;-59
2022/07/22 11:58:37;;;;;;;1.88;1.60;;;;;;;;;;4478011;28;20043;-59
2022/07/22 12:00:48;;;;;;;2.03;1.42;;;;;;;;;;4479005;28;20570;-58
2022/07/22 12:02:59;;;;;;;2.70;1.90;;;;;;;;;;4462434;28;20070;-58
2022/07/22 12:05:09;;;;;;;3.40;2.05;;;;;;;;;;4468158;28;20054;-58
2022/07/22 12:07:20;;;;;;;3.90;2.60;;;;;;;;;;4473755;28;20152;-59
2022/07/22 12:09:33;;;;;;;2.90;2.20;;;;;;;;;;4477248;28;20504;-58
2022/07/22 12:11:48;;;;;;;3.97;2.53;;;;;;;;;;4461770;28;20138;-59
2022/07/22 12:14:08;;;;;;;3.25;2.35;;;;;;;;;;4477415;28;20842;-59
2022/07/22 12:16:23;;;;;;;4.63;2.75;;;;;;;;;;4467110;28;20039;-57
2022/07/22 12:18:39;;;;;;;3.05;2.20;;;;;;;;;;4463327;28;20081;-57
2022/07/22 12:20:50;;;;;;;3.20;2.45;;;;;;;;;;4466869;28;20564;-58
2022/07/22 12:23:02;;;;;;;3.03;2.22;;;;;;;;;;4478009;28;20723;-59
2022/07/22 12:25:12;;;;;;;2.65;1.92;;;;;;;;;;4478755;28;20041;-58
2022/07/22 12:27:23;;;;;;;3.00;1.95;;;;;;;;;;4477902;28;20045;-60
2022/07/22 12:29:36;;;;;;;3.30;1.88;;;;;;;;;;4477762;28;20050;-58
2022/07/22 12:31:55;;;;;;;2.15;1.75;;;;;;;;;;4477287;28;20031;-60
2022/07/22 12:34:06;;;;;;;2.67;1.90;;;;;;;;;;4467114;28;21286;-60
2022/07/22 12:36:16;;;;;;;2.75;1.88;;;;;;;;;;4466846;28;20090;-58
2022/07/22 12:38:27;;;;;;;3.42;1.98;;;;;;;;;;4477069;28;20644;-58
2022/07/22 12:40:38;;;;;;;2.70;1.80;;;;;;;;;;4478013;28;20135;-58
2022/07/22 12:43:02;;;;;;;4.32;2.00;;;;;;;;;;4457590;28;20043;-58
2022/07/22 12:45:15;;;;;;;5.45;2.80;;;;;;;;;;4477277;28;20162;-59
2022/07/22 12:47:55;;;;;;;8.52;3.40;;;;;;;;;;4477111;28;20033;-59
2022/07/22 12:50:23;;;;;;;3.80;2.53;;;;;;;;;;4477540;28;20085;-58
2022/07/22 12:52:34;;;;;;;4.40;2.80;;;;;;;;;;4476966;28;20039;-58
2022/07/22 12:54:44;;;;;;;4.72;3.17;;;;;;;;;;4467045;28;20030;-59
2022/07/22 12:56:54;;;;;;;3.83;2.65;;;;;;;;;;4466294;28;20094;-58
2022/07/22 12:59:05;;;;;;;5.53;3.28;;;;;;;;;;4461689;28;20031;-58
2022/07/22 13:01:15;;;;;;;4.95;3.35;;;;;;;;;;4466199;28;20034;-58
2022/07/22 13:03:27;;;;;;;5.25;3.53;;;;;;;;;;4459626;28;20040;-58
2022/07/22 13:05:37;;;;;;;5.28;3.53;;;;;;;;;;4467330;28;20089;-58
2022/07/22 13:07:48;;;;;;;4.45;3.08;;;;;;;;;;4462183;28;20095;-59
2022/07/22 13:09:58;;;;;;;4.90;2.95;;;;;;;;;;4458910;28;20117;-58
2022/07/22 13:12:09;;;;;;;4.57;3.10;;;;;;;;;;4465443;28;20035;-58
2022/07/22 13:14:19;;;;;;;4.70;3.15;;;;;;;;;;4478223;28;20038;-58
2022/07/22 13:16:30;;;;;;;5.13;3.30;;;;;;;;;;4477201;28;20035;-58
2022/07/22 13:18:40;;;;;;;5.88;3.80;;;;;;;;;;4466620;28;20047;-58
2022/07/22 13:20:50;;;;;;;5.20;3.53;;;;;;;;;;4459513;28;20039;-58
2022/07/22 13:23:01;;;;;;;5.07;3.30;;;;;;;;;;4466928;28;20045;-58